sensor_id;sensor_type;location;lat;lon;timestamp;pressure;altitude;pressure_sealevel;temperature;humidity
14800;BME280;7491;57.750;11.970;2023-07-24T00:01:11;73993.34;;;-142.11;100.00
14800;BME280;7491;57.750;11.970;2023-07-24T00:03:38;73989.28;;;-142.11;100.00
14800;BME280;7491;57.750;11.970;2023-07-24T00:06:05;74001.50;;;-142.11;100.00
14800;BME280;7491;57.750;11.970;2023-07-24T00:08:33;73989.28;;;-142.11;100.00
14800;BME280;7491;57.750;11.970;2023-07-24T00:11:00;73975.00;;;-142.11;100.00
14800;BME280;7491;57.750;11.970;2023-07-24T00:13:28;74001.50;;;-142.11;100.00
14800;BME280;7491;57.750;11.970;2023-07-24T00:15:55;73995.38;;;-142.11;100.00
14800;BME280;7491;57.750;11.970;2023-07-24T00:18:21;73993.34;;;-142.11;100.00
14800;BME280;7491;57.750;11.970;2023-07-24T00:20:48;73981.13;;;-142.11;100.00
14800;BME280;7491;57.750;11.970;2023-07-24T00:23:15;73979.09;;;-142.11;100.00
14800;BME280;7491;57.750;11.970;2023-07-24T00:25:43;73970.94;;;-142.11;100.00
14800;BME280;7491;57.750;11.970;2023-07-24T00:28:10;73981.13;;;-142.11;100.00
14800;BME280;7491;57.750;11.970;2023-07-24T00:30:37;73981.13;;;-142.11;100.00
14800;BME280;7491;57.750;11.970;2023-07-24T00:33:04;73972.97;;;-142.11;100.00
14800;BME280;7491;57.750;11.970;2023-07-24T00:35:30;73968.91;;;-142.11;100.00
14800;BME280;7491;57.750;11.970;2023-07-24T00:37:57;73964.81;;;-142.11;100.00
14800;BME280;7491;57.750;11.970;2023-07-24T00:40:24;73970.94;;;-142.11;100.00
14800;BME280;7491;57.750;11.970;2023-07-24T00:42:52;73981.13;;;-142.11;100.00
14800;BME280;7491;57.750;11.970;2023-07-24T00:45:19;73962.78;;;-142.11;100.00
14800;BME280;7491;57.750;11.970;2023-07-24T00:47:48;73968.91;;;-142.11;100.00
14800;BME280;7491;57.750;11.970;2023-07-24T00:50:15;73962.78;;;-142.11;100.00
14800;BME280;7491;57.750;11.970;2023-07-24T00:52:42;73950.56;;;-142.11;100.00
14800;BME280;7491;57.750;11.970;2023-07-24T00:55:10;73932.22;;;-142.11;100.00
14800;BME280;7491;57.750;11.970;2023-07-24T00:57:37;73936.31;;;-142.11;100.00
14800;BME280;7491;57.750;11.970;2023-07-24T01:00:07;73942.41;;;-142.11;100.00
14800;BME280;7491;57.750;11.970;2023-07-24T01:02:34;73950.56;;;-142.11;100.00
14800;BME280;7491;57.750;11.970;2023-07-24T01:05:02;73932.22;;;-142.11;100.00
14800;BME280;7491;57.750;11.970;2023-07-24T01:07:29;73938.34;;;-142.11;100.00
14800;BME280;7491;57.750;11.970;2023-07-24T01:09:56;73940.38;;;-142.11;100.00
14800;BME280;7491;57.750;11.970;2023-07-24T01:12:29;73913.91;;;-142.11;100.00
14800;BME280;7491;57.750;11.970;2023-07-24T01:15:05;73924.09;;;-142.11;100.00
14800;BME280;7491;57.750;11.970;2023-07-24T01:17:39;73909.81;;;-142.11;100.00
14800;BME280;7491;57.750;11.970;2023-07-24T01:20:11;73920.00;;;-142.11;100.00
14800;BME280;7491;57.750;11.970;2023-07-24T01:22:46;73913.91;;;-142.11;100.00
14800;BME280;7491;57.750;11.970;2023-07-24T01:25:18;73911.88;;;-142.11;100.00
14800;BME280;7491;57.750;11.970;2023-07-24T01:27:50;73915.94;;;-142.11;100.00
14800;BME280;7491;57.750;11.970;2023-07-24T01:30:18;73903.72;;;-142.11;100.00
14800;BME280;7491;57.750;11.970;2023-07-24T01:32:45;73897.59;;;-142.11;100.00
14800;BME280;7491;57.750;11.970;2023-07-24T01:35:12;73881.31;;;-142.11;100.00
14800;BME280;7491;57.750;11.970;2023-07-24T01:37:39;73881.31;;;-142.11;100.00
14800;BME280;7491;57.750;11.970;2023-07-24T01:40:08;73889.44;;;-142.11;100.00
14800;BME280;7491;57.750;11.970;2023-07-24T01:42:35;73885.38;;;-142.11;100.00
14800;BME280;7491;57.750;11.970;2023-07-24T01:45:05;73897.59;;;-142.11;100.00
14800;BME280;7491;57.750;11.970;2023-07-24T01:47:32;73893.53;;;-142.11;100.00
14800;BME280;7491;57.750;11.970;2023-07-24T01:49:59;73885.38;;;-142.11;100.00
14800;BME280;7491;57.750;11.970;2023-07-24T01:52:26;73901.69;;;-142.11;100.00
14800;BME280;7491;57.750;11.970;2023-07-24T01:54:53;73905.75;;;-142.11;100.00
14800;BME280;7491;57.750;11.970;2023-07-24T01:57:19;73903.72;;;-142.11;100.00
14800;BME280;7491;57.750;11.970;2023-07-24T01:59:46;73889.44;;;-142.11;100.00
14800;BME280;7491;57.750;11.970;2023-07-24T02:02:15;73875.19;;;-142.11;100.00
14800;BME280;7491;57.750;11.970;2023-07-24T02:04:42;73869.09;;;-142.11;100.00
14800;BME280;7491;57.750;11.970;2023-07-24T02:07:09;73885.38;;;-142.11;100.00
14800;BME280;7491;57.750;11.970;2023-07-24T02:09:36;73875.19;;;-142.11;100.00
14800;BME280;7491;57.750;11.970;2023-07-24T02:12:03;73877.22;;;-142.11;100.00
14800;BME280;7491;57.750;11.970;2023-07-24T02:14:30;73881.31;;;-142.11;100.00
14800;BME280;7491;57.750;11.970;2023-07-24T02:16:57;73858.91;;;-142.11;100.00
14800;BME280;7491;57.750;11.970;2023-07-24T02:19:25;73865.00;;;-142.11;100.00
14800;BME280;7491;57.750;11.970;2023-07-24T02:21:52;73858.91;;;-142.11;100.00
14800;BME280;7491;57.750;11.970;2023-07-24T02:24:19;73865.00;;;-142.11;100.00
14800;BME280;7491;57.750;11.970;2023-07-24T02:26:46;73860.94;;;-142.11;100.00
14800;BME280;7491;57.750;11.970;2023-07-24T02:29:15;73858.91;;;-142.11;100.00
14800;BME280;7491;57.750;11.970;2023-07-24T02:31:41;73865.00;;;-142.11;100.00
14800;BME280;7491;57.750;11.970;2023-07-24T02:34:09;73856.84;;;-142.11;100.00
14800;BME280;7491;57.750;11.970;2023-07-24T02:36:37;73850.75;;;-142.11;100.00
14800;BME280;7491;57.750;11.970;2023-07-24T02:39:06;73846.66;;;-142.11;100.00
14800;BME280;7491;57.750;11.970;2023-07-24T02:41:33;73842.59;;;-142.11;100.00
14800;BME280;7491;57.750;11.970;2023-07-24T02:44:02;73865.00;;;-142.11;100.00
14800;BME280;7491;57.750;11.970;2023-07-24T02:46:28;73842.59;;;-142.11;100.00
14800;BME280;7491;57.750;11.970;2023-07-24T02:48:56;73842.59;;;-142.11;100.00
14800;BME280;7491;57.750;11.970;2023-07-24T02:51:23;73848.72;;;-142.11;100.00
14800;BME280;7491;57.750;11.970;2023-07-24T02:53:52;73846.66;;;-142.11;100.00
14800;BME280;7491;57.750;11.970;2023-07-24T02:56:19;73846.66;;;-142.11;100.00
14800;BME280;7491;57.750;11.970;2023-07-24T02:58:46;73846.66;;;-142.11;100.00
14800;BME280;7491;57.750;11.970;2023-07-24T03:01:12;73848.72;;;-142.11;100.00
14800;BME280;7491;57.750;11.970;2023-07-24T03:03:40;73818.16;;;-142.11;100.00
14800;BME280;7491;57.750;11.970;2023-07-24T03:06:07;73816.13;;;-142.11;100.00
14800;BME280;7491;57.750;11.970;2023-07-24T03:08:34;73836.50;;;-142.11;100.00
14800;BME280;7491;57.750;11.970;2023-07-24T03:11:04;73824.25;;;-142.11;100.00
14800;BME280;7491;57.750;11.970;2023-07-24T03:13:31;73822.22;;;-142.11;100.00
14800;BME280;7491;57.750;11.970;2023-07-24T03:15:58;73834.44;;;-142.11;100.00
14800;BME280;7491;57.750;11.970;2023-07-24T03:18:26;73820.19;;;-142.11;100.00
14800;BME280;7491;57.750;11.970;2023-07-24T03:20:52;73814.06;;;-142.11;100.00
14800;BME280;7491;57.750;11.970;2023-07-24T03:23:19;73805.94;;;-142.11;100.00
14800;BME280;7491;57.750;11.970;2023-07-24T03:25:46;73818.16;;;-142.11;100.00
14800;BME280;7491;57.750;11.970;2023-07-24T03:28:15;73799.81;;;-142.11;100.00
14800;BME280;7491;57.750;11.970;2023-07-24T03:30:42;73801.84;;;-142.11;100.00
14800;BME280;7491;57.750;11.970;2023-07-24T03:33:08;73791.66;;;-142.11;100.00
14800;BME280;7491;57.750;11.970;2023-07-24T03:35:37;73801.84;;;-142.11;100.00
14800;BME280;7491;57.750;11.970;2023-07-24T03:38:04;73799.81;;;-142.11;100.00
14800;BME280;7491;57.750;11.970;2023-07-24T03:40:31;73795.75;;;-142.11;100.00
14800;BME280;7491;57.750;11.970;2023-07-24T03:42:57;73793.72;;;-142.11;100.00
14800;BME280;7491;57.750;11.970;2023-07-24T03:45:28;73797.78;;;-142.11;100.00
14800;BME280;7491;57.750;11.970;2023-07-24T03:47:55;73791.66;;;-142.11;100.00
14800;BME280;7491;57.750;11.970;2023-07-24T03:50:22;73781.47;;;-142.11;100.00
14800;BME280;7491;57.750;11.970;2023-07-24T03:52:49;73781.47;;;-142.11;100.00
14800;BME280;7491;57.750;11.970;2023-07-24T03:55:16;73793.72;;;-142.11;100.00
14800;BME280;7491;57.750;11.970;2023-07-24T03:57:45;73793.72;;;-142.11;100.00
14800;BME280;7491;57.750;11.970;2023-07-24T04:00:13;73797.78;;;-142.11;100.00
14800;BME280;7491;57.750;11.970;2023-07-24T04:02:41;73785.56;;;-142.11;100.00
14800;BME280;7491;57.750;11.970;2023-07-24T04:05:08;73779.44;;;-142.11;100.00
14800;BME280;7491;57.750;11.970;2023-07-24T04:07:35;73781.47;;;-142.11;100.00
14800;BME280;7491;57.750;11.970;2023-07-24T04:10:03;73769.25;;;-142.11;100.00
14800;BME280;7491;57.750;11.970;2023-07-24T04:12:29;73763.16;;;-142.11;100.00
14800;BME280;7491;57.750;11.970;2023-07-24T04:14:56;73767.22;;;-142.11;100.00
14800;BME280;7491;57.750;11.970;2023-07-24T04:17:23;73746.84;;;-142.11;100.00
14800;BME280;7491;57.750;11.970;2023-07-24T04:19:51;73738.72;;;-142.11;100.00
14800;BME280;7491;57.750;11.970;2023-07-24T04:22:18;73746.84;;;-142.11;100.00
14800;BME280;7491;57.750;11.970;2023-07-24T04:24:45;73728.53;;;-142.11;100.00
14800;BME280;7491;57.750;11.970;2023-07-24T04:27:11;73736.66;;;-142.11;100.00
14800;BME280;7491;57.750;11.970;2023-07-24T04:29:38;73712.22;;;-142.11;100.00
14800;BME280;7491;57.750;11.970;2023-07-24T04:32:06;73714.25;;;-142.11;100.00
14800;BME280;7491;57.750;11.970;2023-07-24T04:34:33;73712.22;;;-142.11;100.00
14800;BME280;7491;57.750;11.970;2023-07-24T04:37:01;73710.19;;;-142.11;100.00
14800;BME280;7491;57.750;11.970;2023-07-24T04:39:28;73697.97;;;-142.11;100.00
14800;BME280;7491;57.750;11.970;2023-07-24T04:41:54;73693.88;;;-142.11;100.00
14800;BME280;7491;57.750;11.970;2023-07-24T04:44:22;73681.66;;;-142.11;100.00
14800;BME280;7491;57.750;11.970;2023-07-24T04:46:48;73671.47;;;-142.11;100.00
14800;BME280;7491;57.750;11.970;2023-07-24T04:49:15;73675.56;;;-142.11;100.00
14800;BME280;7491;57.750;11.970;2023-07-24T04:51:42;73665.38;;;-142.11;100.00
14800;BME280;7491;57.750;11.970;2023-07-24T04:54:11;73661.31;;;-142.11;100.00
14800;BME280;7491;57.750;11.970;2023-07-24T04:56:37;73653.16;;;-142.11;100.00
14800;BME280;7491;57.750;11.970;2023-07-24T04:59:04;73659.25;;;-142.11;100.00
14800;BME280;7491;57.750;11.970;2023-07-24T05:01:32;73659.25;;;-142.11;100.00
14800;BME280;7491;57.750;11.970;2023-07-24T05:03:59;73647.03;;;-142.11;100.00
14800;BME280;7491;57.750;11.970;2023-07-24T05:06:26;73642.97;;;-142.11;100.00
14800;BME280;7491;57.750;11.970;2023-07-24T05:08:53;73640.94;;;-142.11;100.00
14800;BME280;7491;57.750;11.970;2023-07-24T05:11:21;73626.66;;;-142.11;100.00
14800;BME280;7491;57.750;11.970;2023-07-24T05:13:48;73620.56;;;-142.11;100.00
14800;BME280;7491;57.750;11.970;2023-07-24T05:16:14;73628.72;;;-142.11;100.00
14800;BME280;7491;57.750;11.970;2023-07-24T05:18:41;73630.75;;;-142.11;100.00
14800;BME280;7491;57.750;11.970;2023-07-24T05:21:08;73636.84;;;-142.11;100.00
14800;BME280;7491;57.750;11.970;2023-07-24T05:23:35;73634.81;;;-142.11;100.00
14800;BME280;7491;57.750;11.970;2023-07-24T05:26:03;73638.88;;;-142.11;100.00
14800;BME280;7491;57.750;11.970;2023-07-24T05:28:32;73624.63;;;-142.11;100.00
14800;BME280;7491;57.750;11.970;2023-07-24T05:31:00;73624.63;;;-142.11;100.00
14800;BME280;7491;57.750;11.970;2023-07-24T05:33:27;73620.56;;;-142.11;100.00
14800;BME280;7491;57.750;11.970;2023-07-24T05:35:58;73614.44;;;-142.11;100.00
14800;BME280;7491;57.750;11.970;2023-07-24T05:38:25;73632.78;;;-142.11;100.00
14800;BME280;7491;57.750;11.970;2023-07-24T05:40:55;73616.47;;;-142.11;100.00
14800;BME280;7491;57.750;11.970;2023-07-24T05:43:22;73606.31;;;-142.11;100.00
14800;BME280;7491;57.750;11.970;2023-07-24T05:45:50;73610.38;;;-142.11;100.00
14800;BME280;7491;57.750;11.970;2023-07-24T05:48:17;73610.38;;;-142.11;100.00
14800;BME280;7491;57.750;11.970;2023-07-24T05:51:07;73612.41;;;-142.11;100.00
14800;BME280;7491;57.750;11.970;2023-07-24T05:53:35;73600.19;;;-142.11;100.00
14800;BME280;7491;57.750;11.970;2023-07-24T05:56:03;73596.13;;;-142.11;100.00
14800;BME280;7491;57.750;11.970;2023-07-24T05:58:30;73592.03;;;-142.11;100.00
14800;BME280;7491;57.750;11.970;2023-07-24T06:00:58;73590.00;;;-142.11;100.00
14800;BME280;7491;57.750;11.970;2023-07-24T06:03:25;73602.22;;;-142.11;100.00
14800;BME280;7491;57.750;11.970;2023-07-24T06:05:52;73590.00;;;-142.11;100.00
14800;BME280;7491;57.750;11.970;2023-07-24T06:08:19;73575.75;;;-142.11;100.00
14800;BME280;7491;57.750;11.970;2023-07-24T06:10:47;73565.56;;;-142.11;100.00
14800;BME280;7491;57.750;11.970;2023-07-24T06:13:14;73555.38;;;-142.11;100.00
14800;BME280;7491;57.750;11.970;2023-07-24T06:15:41;73547.22;;;-142.11;100.00
14800;BME280;7491;57.750;11.970;2023-07-24T06:18:10;73539.06;;;-142.11;100.00
14800;BME280;7491;57.750;11.970;2023-07-24T06:20:37;73535.00;;;-142.11;100.00
14800;BME280;7491;57.750;11.970;2023-07-24T06:23:03;73526.84;;;-142.11;100.00
14800;BME280;7491;57.750;11.970;2023-07-24T06:25:31;73530.94;;;-142.11;100.00
14800;BME280;7491;57.750;11.970;2023-07-24T06:27:58;73524.81;;;-142.11;100.00
14800;BME280;7491;57.750;11.970;2023-07-24T06:30:25;73512.59;;;-142.11;100.00
14800;BME280;7491;57.750;11.970;2023-07-24T06:32:52;73508.53;;;-142.11;100.00
14800;BME280;7491;57.750;11.970;2023-07-24T06:35:20;73510.56;;;-142.11;100.00
14800;BME280;7491;57.750;11.970;2023-07-24T06:37:47;73498.34;;;-142.11;100.00
14800;BME280;7491;57.750;11.970;2023-07-24T06:40:14;73494.25;;;-142.11;100.00
14800;BME280;7491;57.750;11.970;2023-07-24T06:42:41;73492.22;;;-142.11;100.00
14800;BME280;7491;57.750;11.970;2023-07-24T06:45:08;73498.34;;;-142.11;100.00
14800;BME280;7491;57.750;11.970;2023-07-24T06:47:35;73465.75;;;-142.11;100.00
14800;BME280;7491;57.750;11.970;2023-07-24T06:50:02;73482.03;;;-142.11;100.00
14800;BME280;7491;57.750;11.970;2023-07-24T06:52:31;73449.44;;;-142.11;100.00
14800;BME280;7491;57.750;11.970;2023-07-24T06:54:58;73441.31;;;-142.11;100.00
14800;BME280;7491;57.750;11.970;2023-07-24T06:57:25;73425.00;;;-142.11;100.00
14800;BME280;7491;57.750;11.970;2023-07-24T06:59:52;73396.50;;;-142.11;100.00
14800;BME280;7491;57.750;11.970;2023-07-24T07:02:19;73374.09;;;-142.11;100.00
14800;BME280;7491;57.750;11.970;2023-07-24T07:04:46;73341.50;;;-142.11;100.00
14800;BME280;7491;57.750;11.970;2023-07-24T07:07:12;73337.44;;;-142.11;100.00
14800;BME280;7491;57.750;11.970;2023-07-24T07:09:41;73323.16;;;-142.11;100.00
14800;BME280;7491;57.750;11.970;2023-07-24T07:12:08;73319.09;;;-142.11;100.00
14800;BME280;7491;57.750;11.970;2023-07-24T07:14:35;73315.03;;;-142.11;100.00
14800;BME280;7491;57.750;11.970;2023-07-24T07:17:01;73313.00;;;-142.11;100.00
14800;BME280;7491;57.750;11.970;2023-07-24T07:19:28;73310.94;;;-142.11;100.00
14800;BME280;7491;57.750;11.970;2023-07-24T07:21:55;73337.44;;;-142.11;100.00
14800;BME280;7491;57.750;11.970;2023-07-24T07:24:22;73325.22;;;-142.11;100.00
14800;BME280;7491;57.750;11.970;2023-07-24T07:26:50;73329.28;;;-142.11;100.00
14800;BME280;7491;57.750;11.970;2023-07-24T07:29:17;73306.88;;;-142.11;100.00
14800;BME280;7491;57.750;11.970;2023-07-24T07:31:43;73317.06;;;-142.11;100.00
14800;BME280;7491;57.750;11.970;2023-07-24T07:34:10;73331.31;;;-142.11;100.00
14800;BME280;7491;57.750;11.970;2023-07-24T07:36:37;73323.16;;;-142.11;100.00
14800;BME280;7491;57.750;11.970;2023-07-24T07:39:04;73317.06;;;-142.11;100.00
14800;BME280;7491;57.750;11.970;2023-07-24T07:41:31;73304.84;;;-142.11;100.00
14800;BME280;7491;57.750;11.970;2023-07-24T07:43:59;73298.72;;;-142.11;100.00
14800;BME280;7491;57.750;11.970;2023-07-24T07:46:26;73280.41;;;-142.11;100.00
14800;BME280;7491;57.750;11.970;2023-07-24T07:48:51;73272.25;;;-142.11;100.00
14800;BME280;7491;57.750;11.970;2023-07-24T07:51:18;73262.06;;;-142.11;100.00
14800;BME280;7491;57.750;11.970;2023-07-24T07:53:45;73268.19;;;-142.11;100.00
14800;BME280;7491;57.750;11.970;2023-07-24T07:56:12;73255.97;;;-142.11;100.00
14800;BME280;7491;57.750;11.970;2023-07-24T07:58:38;73258.00;;;-142.11;100.00
14800;BME280;7491;57.750;11.970;2023-07-24T08:01:07;73262.06;;;-142.11;100.00
14800;BME280;7491;57.750;11.970;2023-07-24T08:03:33;73270.22;;;-142.11;100.00
14800;BME280;7491;57.750;11.970;2023-07-24T08:06:01;73266.13;;;-142.11;100.00
14800;BME280;7491;57.750;11.970;2023-07-24T08:08:27;73264.09;;;-142.11;100.00
14800;BME280;7491;57.750;11.970;2023-07-24T08:10:54;73266.13;;;-142.11;100.00
14800;BME280;7491;57.750;11.970;2023-07-24T08:13:22;73262.06;;;-142.11;100.00
14800;BME280;7491;57.750;11.970;2023-07-24T08:15:49;73290.59;;;-142.11;100.00
14800;BME280;7491;57.750;11.970;2023-07-24T08:18:17;73300.75;;;-142.11;100.00
14800;BME280;7491;57.750;11.970;2023-07-24T08:20:44;73319.09;;;-142.11;100.00
14800;BME280;7491;57.750;11.970;2023-07-24T08:23:11;73319.09;;;-142.11;100.00
14800;BME280;7491;57.750;11.970;2023-07-24T08:25:38;73325.22;;;-142.11;100.00
14800;BME280;7491;57.750;11.970;2023-07-24T08:28:04;73317.06;;;-142.11;100.00
14800;BME280;7491;57.750;11.970;2023-07-24T08:30:31;73317.06;;;-142.11;100.00
14800;BME280;7491;57.750;11.970;2023-07-24T08:32:58;73315.03;;;-142.11;100.00
14800;BME280;7491;57.750;11.970;2023-07-24T08:35:27;73304.84;;;-142.11;100.00
14800;BME280;7491;57.750;11.970;2023-07-24T08:37:54;73313.00;;;-142.11;100.00
14800;BME280;7491;57.750;11.970;2023-07-24T08:40:21;73310.94;;;-142.11;100.00
14800;BME280;7491;57.750;11.970;2023-07-24T08:42:49;73304.84;;;-142.11;100.00
14800;BME280;7491;57.750;11.970;2023-07-24T08:45:17;73302.81;;;-142.11;100.00
14800;BME280;7491;57.750;11.970;2023-07-24T08:47:44;73294.66;;;-142.11;100.00
14800;BME280;7491;57.750;11.970;2023-07-24T08:50:12;73308.91;;;-142.11;100.00
14800;BME280;7491;57.750;11.970;2023-07-24T08:52:42;73315.03;;;-142.11;100.00
14800;BME280;7491;57.750;11.970;2023-07-24T08:55:10;73296.69;;;-142.11;100.00
14800;BME280;7491;57.750;11.970;2023-07-24T08:57:37;73302.81;;;-142.11;100.00
14800;BME280;7491;57.750;11.970;2023-07-24T09:00:04;73329.28;;;-142.11;100.00
14800;BME280;7491;57.750;11.970;2023-07-24T09:02:35;73331.31;;;-142.11;100.00
14800;BME280;7491;57.750;11.970;2023-07-24T09:05:02;73341.50;;;-142.11;100.00
14800;BME280;7491;57.750;11.970;2023-07-24T09:07:30;73333.34;;;-142.11;100.00
14800;BME280;7491;57.750;11.970;2023-07-24T09:09:58;73306.88;;;-142.11;100.00
14800;BME280;7491;57.750;11.970;2023-07-24T09:12:25;73280.41;;;-142.11;100.00
14800;BME280;7491;57.750;11.970;2023-07-24T09:15:00;73280.41;;;-142.11;100.00
14800;BME280;7491;57.750;11.970;2023-07-24T09:17:28;73274.28;;;-142.11;100.00
14800;BME280;7491;57.750;11.970;2023-07-24T09:19:57;73251.88;;;-142.11;100.00
14800;BME280;7491;57.750;11.970;2023-07-24T09:22:24;73241.69;;;-142.11;100.00
14800;BME280;7491;57.750;11.970;2023-07-24T09:24:54;73237.63;;;-142.11;100.00
14800;BME280;7491;57.750;11.970;2023-07-24T09:27:25;73235.59;;;-142.11;100.00
14800;BME280;7491;57.750;11.970;2023-07-24T09:29:54;73239.66;;;-142.11;100.00
14800;BME280;7491;57.750;11.970;2023-07-24T09:32:22;73235.59;;;-142.11;100.00
14800;BME280;7491;57.750;11.970;2023-07-24T09:34:49;73245.78;;;-142.11;100.00
14800;BME280;7491;57.750;11.970;2023-07-24T09:37:27;73262.06;;;-142.11;100.00
14800;BME280;7491;57.750;11.970;2023-07-24T09:39:54;73266.13;;;-142.11;100.00
14800;BME280;7491;57.750;11.970;2023-07-24T09:42:32;73264.09;;;-142.11;100.00
14800;BME280;7491;57.750;11.970;2023-07-24T09:44:59;73243.72;;;-142.11;100.00
14800;BME280;7491;57.750;11.970;2023-07-24T09:47:26;73237.63;;;-142.11;100.00
14800;BME280;7491;57.750;11.970;2023-07-24T09:49:53;73233.56;;;-142.11;100.00
14800;BME280;7491;57.750;11.970;2023-07-24T09:52:21;73245.78;;;-142.11;100.00
14800;BME280;7491;57.750;11.970;2023-07-24T09:54:55;73262.06;;;-142.11;100.00
14800;BME280;7491;57.750;11.970;2023-07-24T09:57:23;73249.84;;;-142.11;100.00
14800;BME280;7491;57.750;11.970;2023-07-24T09:59:52;73253.91;;;-142.11;100.00
14800;BME280;7491;57.750;11.970;2023-07-24T10:02:21;73217.25;;;-142.11;100.00
14800;BME280;7491;57.750;11.970;2023-07-24T10:04:49;73186.72;;;-142.11;100.00
14800;BME280;7491;57.750;11.970;2023-07-24T10:07:16;73188.75;;;-142.11;100.00
14800;BME280;7491;57.750;11.970;2023-07-24T10:09:47;73182.63;;;-142.11;100.00
14800;BME280;7491;57.750;11.970;2023-07-24T10:12:14;73182.63;;;-142.11;100.00
14800;BME280;7491;57.750;11.970;2023-07-24T10:14:43;73162.25;;;-142.11;100.00
14800;BME280;7491;57.750;11.970;2023-07-24T10:17:12;73170.41;;;-142.11;100.00
14800;BME280;7491;57.750;11.970;2023-07-24T10:19:39;73176.53;;;-142.11;100.00
14800;BME280;7491;57.750;11.970;2023-07-24T10:22:09;73172.44;;;-142.11;100.00
14800;BME280;7491;57.750;11.970;2023-07-24T10:24:36;73192.81;;;-142.11;100.00
14800;BME280;7491;57.750;11.970;2023-07-24T10:27:03;73174.47;;;-142.11;100.00
14800;BME280;7491;57.750;11.970;2023-07-24T10:29:34;73135.78;;;-142.11;100.00
14800;BME280;7491;57.750;11.970;2023-07-24T10:32:01;73127.63;;;-142.11;100.00
14800;BME280;7491;57.750;11.970;2023-07-24T10:34:37;73145.97;;;-142.11;100.00
14800;BME280;7491;57.750;11.970;2023-07-24T10:37:07;73152.09;;;-142.11;100.00
14800;BME280;7491;57.750;11.970;2023-07-24T10:39:38;73129.69;;;-142.11;100.00
14800;BME280;7491;57.750;11.970;2023-07-24T10:42:07;73160.22;;;-142.11;100.00
14800;BME280;7491;57.750;11.970;2023-07-24T10:44:35;73154.13;;;-142.11;100.00
14800;BME280;7491;57.750;11.970;2023-07-24T10:47:02;73135.78;;;-142.11;100.00
14800;BME280;7491;57.750;11.970;2023-07-24T10:49:29;73107.28;;;-142.11;100.00
14800;BME280;7491;57.750;11.970;2023-07-24T10:51:59;73082.84;;;-142.11;100.00
14800;BME280;7491;57.750;11.970;2023-07-24T10:54:25;73090.97;;;-142.11;100.00
14800;BME280;7491;57.750;11.970;2023-07-24T10:56:57;73117.47;;;-142.11;100.00
14800;BME280;7491;57.750;11.970;2023-07-24T10:59:35;73135.78;;;-142.11;100.00
14800;BME280;7491;57.750;11.970;2023-07-24T11:02:03;73127.63;;;-142.11;100.00
14800;BME280;7491;57.750;11.970;2023-07-24T11:04:31;73123.56;;;-142.11;100.00
14800;BME280;7491;57.750;11.970;2023-07-24T11:07:00;73074.69;;;-142.11;100.00
14800;BME280;7491;57.750;11.970;2023-07-24T11:09:36;73056.34;;;-142.11;100.00
14800;BME280;7491;57.750;11.970;2023-07-24T11:12:13;73048.22;;;-142.11;100.00
14800;BME280;7491;57.750;11.970;2023-07-24T11:14:47;73040.06;;;-142.11;100.00
14800;BME280;7491;57.750;11.970;2023-07-24T11:17:14;73060.44;;;-142.11;100.00
14800;BME280;7491;57.750;11.970;2023-07-24T11:19:41;73099.13;;;-142.11;100.00
14800;BME280;7491;57.750;11.970;2023-07-24T11:22:09;73062.47;;;-142.11;100.00
14800;BME280;7491;57.750;11.970;2023-07-24T11:24:42;73027.84;;;-142.11;100.00
14800;BME280;7491;57.750;11.970;2023-07-24T11:27:12;73015.63;;;-142.11;100.00
14800;BME280;7491;57.750;11.970;2023-07-24T11:29:39;72995.25;;;-142.11;100.00
14800;BME280;7491;57.750;11.970;2023-07-24T11:32:06;73015.63;;;-142.11;100.00
14800;BME280;7491;57.750;11.970;2023-07-24T11:34:33;72997.28;;;-142.11;100.00
14800;BME280;7491;57.750;11.970;2023-07-24T11:37:01;73015.63;;;-142.11;100.00
14800;BME280;7491;57.750;11.970;2023-07-24T11:39:29;73031.91;;;-142.11;100.00
14800;BME280;7491;57.750;11.970;2023-07-24T11:41:56;73013.59;;;-142.11;100.00
14800;BME280;7491;57.750;11.970;2023-07-24T11:44:26;73007.47;;;-142.11;100.00
14800;BME280;7491;57.750;11.970;2023-07-24T11:47:00;73007.47;;;-142.11;100.00
14800;BME280;7491;57.750;11.970;2023-07-24T11:49:28;73011.56;;;-142.11;100.00
14800;BME280;7491;57.750;11.970;2023-07-24T11:51:59;73005.44;;;-142.11;100.00
14800;BME280;7491;57.750;11.970;2023-07-24T11:54:26;73017.66;;;-142.11;100.00
14800;BME280;7491;57.750;11.970;2023-07-24T11:56:54;73036.00;;;-142.11;100.00
14800;BME280;7491;57.750;11.970;2023-07-24T11:59:21;73038.03;;;-142.11;100.00
14800;BME280;7491;57.750;11.970;2023-07-24T12:01:48;73038.03;;;-142.11;100.00
14800;BME280;7491;57.750;11.970;2023-07-24T12:04:16;73042.09;;;-142.11;100.00
14800;BME280;7491;57.750;11.970;2023-07-24T12:06:43;73066.53;;;-142.11;100.00
14800;BME280;7491;57.750;11.970;2023-07-24T12:09:10;73036.00;;;-142.11;100.00
14800;BME280;7491;57.750;11.970;2023-07-24T12:11:41;73033.94;;;-142.11;100.00
14800;BME280;7491;57.750;11.970;2023-07-24T12:14:13;73066.53;;;-142.11;100.00
14800;BME280;7491;57.750;11.970;2023-07-24T12:16:39;73072.66;;;-142.11;100.00
14800;BME280;7491;57.750;11.970;2023-07-24T12:19:06;73060.44;;;-142.11;100.00
14800;BME280;7491;57.750;11.970;2023-07-24T12:21:34;73023.78;;;-142.11;100.00
14800;BME280;7491;57.750;11.970;2023-07-24T12:24:04;73015.63;;;-142.11;100.00
14800;BME280;7491;57.750;11.970;2023-07-24T12:26:31;73001.38;;;-142.11;100.00
14800;BME280;7491;57.750;11.970;2023-07-24T12:28:58;73023.78;;;-142.11;100.00
14800;BME280;7491;57.750;11.970;2023-07-24T12:31:27;73038.03;;;-142.11;100.00
14800;BME280;7491;57.750;11.970;2023-07-24T12:33:53;73042.09;;;-142.11;100.00